createdAt,value
2018-07-13T00:01:39.549Z,55.60
2018-07-13T00:04:07.022Z,54.86
2018-07-13T00:06:34.498Z,55.20
2018-07-13T00:09:01.944Z,55.29
2018-07-13T00:11:29.404Z,54.87
2018-07-13T00:14:08.471Z,54.98
2018-07-13T00:16:35.766Z,55.72
2018-07-13T00:19:03.266Z,55.16
2018-07-13T00:21:30.677Z,55.68
2018-07-13T00:23:58.189Z,55.06
2018-07-13T00:26:25.601Z,54.88
2018-07-13T00:28:53.126Z,55.00
2018-07-13T00:31:20.535Z,55.43
2018-07-13T00:33:47.994Z,55.07
2018-07-13T00:36:15.453Z,55.40
2018-07-13T00:38:42.895Z,54.65
2018-07-13T00:41:10.361Z,54.62
2018-07-13T00:43:37.813Z,55.34
2018-07-13T00:46:05.287Z,54.65
2018-07-13T00:48:32.742Z,55.34
2018-07-13T00:51:00.201Z,54.83
2018-07-13T00:53:27.626Z,54.47
2018-07-13T00:55:55.105Z,55.00
2018-07-13T00:58:22.594Z,55.24
2018-07-13T01:00:50.022Z,54.66
2018-07-13T01:03:17.486Z,55.35
2018-07-13T01:05:44.933Z,55.17
2018-07-13T01:08:12.377Z,55.08
2018-07-13T01:10:39.849Z,54.77
2018-07-13T01:13:07.293Z,54.54
2018-07-13T01:15:34.758Z,54.50
2018-07-13T01:18:02.245Z,55.31
2018-07-13T01:20:29.666Z,55.20
2018-07-13T01:22:57.125Z,55.27
2018-07-13T01:25:24.594Z,54.70
2018-07-13T01:27:52.063Z,54.59
2018-07-13T01:30:19.525Z,55.02
2018-07-13T01:32:46.941Z,55.45
2018-07-13T01:35:14.430Z,54.70
2018-07-13T01:37:41.885Z,54.61
2018-07-13T01:40:09.314Z,55.37
2018-07-13T01:42:36.783Z,54.48
2018-07-13T01:45:04.266Z,54.51
2018-07-13T01:47:31.690Z,54.64
2018-07-13T01:49:59.161Z,55.62
2018-07-13T01:52:26.637Z,55.28
2018-07-13T01:54:54.125Z,54.72
2018-07-13T01:57:21.538Z,54.92
2018-07-13T01:59:48.988Z,54.88
2018-07-13T02:02:16.351Z,55.30
2018-07-13T02:04:43.791Z,55.31
2018-07-13T02:07:11.326Z,54.63
2018-07-13T02:09:38.701Z,55.23
2018-07-13T02:12:06.177Z,55.17
2018-07-13T02:14:33.629Z,55.51
2018-07-13T02:17:01.078Z,55.48
2018-07-13T02:19:28.570Z,55.25
2018-07-13T02:21:56.018Z,54.97
2018-07-13T02:24:23.446Z,54.68
2018-07-13T02:26:50.927Z,54.72
2018-07-13T02:29:18.393Z,55.52
2018-07-13T02:31:45.834Z,55.54
2018-07-13T02:34:13.282Z,55.38
2018-07-13T02:36:40.759Z,54.82
2018-07-13T02:39:08.281Z,55.58
2018-07-13T02:41:35.677Z,54.95
2018-07-13T02:44:03.113Z,55.61
2018-07-13T02:46:30.563Z,55.51
2018-07-13T02:48:58.026Z,55.46
2018-07-13T02:51:25.490Z,54.89
2018-07-13T02:53:52.951Z,55.05
2018-07-13T02:56:20.389Z,55.06
2018-07-13T02:58:47.870Z,55.37
2018-07-13T03:01:15.307Z,54.84
2018-07-13T03:03:42.827Z,54.96
2018-07-13T03:06:10.239Z,55.57
2018-07-13T03:08:37.697Z,55.52
2018-07-13T03:11:05.137Z,54.97
2018-07-13T03:13:32.590Z,54.97
2018-07-13T03:16:00.057Z,54.87
2018-07-13T03:18:27.507Z,54.83
2018-07-13T03:20:54.973Z,54.88
2018-07-13T03:23:22.433Z,55.58
2018-07-13T03:25:49.898Z,54.77
2018-07-13T03:28:17.344Z,54.79
2018-07-13T03:30:44.826Z,55.52
2018-07-13T03:33:12.271Z,54.85
2018-07-13T03:35:39.744Z,55.49
2018-07-13T03:38:07.190Z,55.22
2018-07-13T03:40:34.653Z,55.49
2018-07-13T03:43:02.101Z,55.33
2018-07-13T03:45:29.599Z,54.76
2018-07-13T03:47:57.014Z,54.56
2018-07-13T03:50:25.498Z,54.81
2018-07-13T03:52:52.988Z,54.75
2018-07-13T03:55:20.402Z,54.83
2018-07-13T03:57:47.850Z,54.64
2018-07-13T04:00:15.313Z,54.98
2018-07-13T04:02:42.768Z,55.59
2018-07-13T04:05:10.210Z,54.69
2018-07-13T04:07:37.713Z,55.31
2018-07-13T04:10:05.177Z,54.71
2018-07-13T04:12:32.581Z,55.38
2018-07-13T04:15:00.069Z,55.62
2018-07-13T04:17:27.521Z,54.72
2018-07-13T04:19:54.978Z,55.49
2018-07-13T04:22:22.438Z,55.54
2018-07-13T04:24:49.890Z,55.21
2018-07-13T04:27:17.373Z,54.91
2018-07-13T04:29:44.889Z,54.91
2018-07-13T04:32:12.261Z,55.23
2018-07-13T04:34:39.709Z,54.96
2018-07-13T04:37:07.152Z,55.07
2018-07-13T04:39:34.634Z,55.97
2018-07-13T04:42:02.070Z,55.12
2018-07-13T04:44:29.596Z,55.48
2018-07-13T04:46:57.001Z,55.90
2018-07-13T04:49:24.462Z,55.62
2018-07-13T04:51:51.923Z,55.88
2018-07-13T04:54:19.389Z,55.78
2018-07-13T04:56:46.813Z,55.84
2018-07-13T04:59:14.281Z,55.17
2018-07-13T05:01:41.748Z,55.07
2018-07-13T05:04:09.204Z,55.72
2018-07-13T05:06:36.678Z,55.07
2018-07-13T05:09:06.074Z,54.99
2018-07-13T05:11:33.400Z,55.52
2018-07-13T05:14:00.885Z,55.46
2018-07-13T05:16:28.313Z,55.80
2018-07-13T05:18:55.812Z,55.01
2018-07-13T05:21:23.248Z,55.00
2018-07-13T05:23:50.693Z,54.96
2018-07-13T05:26:18.162Z,55.77
2018-07-13T05:28:45.617Z,55.01
2018-07-13T05:31:13.265Z,55.61
2018-07-13T05:33:40.738Z,55.69
2018-07-13T05:36:08.190Z,54.92
2018-07-13T05:38:35.641Z,55.63
2018-07-13T05:41:03.112Z,55.22
2018-07-13T05:43:30.554Z,55.67
2018-07-13T05:45:58.080Z,55.71
2018-07-13T05:48:25.498Z,55.48
2018-07-13T05:50:52.951Z,55.01
2018-07-13T05:53:20.387Z,55.57
2018-07-13T05:55:47.857Z,55.71
2018-07-13T05:58:15.354Z,55.69
2018-07-13T06:00:42.768Z,55.19
2018-07-13T06:03:10.226Z,54.89
2018-07-13T06:05:37.686Z,55.67
2018-07-13T06:08:05.187Z,54.90
2018-07-13T06:10:32.604Z,55.73
2018-07-13T06:13:00.082Z,54.90
2018-07-13T06:15:27.525Z,55.12
2018-07-13T06:17:54.984Z,55.23
2018-07-13T06:20:22.421Z,55.14
2018-07-13T06:22:49.894Z,55.04
2018-07-13T06:25:17.349Z,55.85
2018-07-13T06:27:44.822Z,55.85
2018-07-13T06:30:12.242Z,55.08
2018-07-13T06:32:39.738Z,55.84
2018-07-13T06:35:07.189Z,55.93
2018-07-13T06:37:34.634Z,55.24
2018-07-13T06:40:02.335Z,56.04
2018-07-13T06:42:29.782Z,56.00
2018-07-13T06:44:57.210Z,54.71
2018-07-13T06:47:24.671Z,52.35
2018-07-13T06:49:52.111Z,52.17
2018-07-13T06:52:19.615Z,54.61
2018-07-13T06:54:47.033Z,53.38
2018-07-13T06:57:24.446Z,53.55
2018-07-13T06:59:51.777Z,53.19
2018-07-13T07:02:30.385Z,52.45
2018-07-13T07:05:10.430Z,53.19
2018-07-13T07:07:37.920Z,52.66
2018-07-13T07:10:05.415Z,52.64
2018-07-13T07:12:48.826Z,52.52
2018-07-13T07:15:16.171Z,54.55
2018-07-13T07:17:43.629Z,53.15
2018-07-13T07:20:11.070Z,52.61
2018-07-13T07:22:38.530Z,53.41
2018-07-13T07:25:05.998Z,54.10
2018-07-13T07:27:33.441Z,53.38
2018-07-13T07:30:00.878Z,53.42
2018-07-13T07:32:28.342Z,53.57
2018-07-13T07:34:55.867Z,53.47
2018-07-13T07:37:23.259Z,54.13
2018-07-13T07:39:50.707Z,52.53
2018-07-13T07:42:18.182Z,52.49
2018-07-13T07:46:10.222Z,52.37
2018-07-13T07:48:37.686Z,52.52
2018-07-13T07:51:05.154Z,53.28
2018-07-13T07:53:32.590Z,52.77
2018-07-13T07:56:00.032Z,52.79
2018-07-13T07:58:27.544Z,53.73
2018-07-13T08:00:54.951Z,54.15
2018-07-13T08:03:22.419Z,53.11
2018-07-13T08:05:49.862Z,54.08
2018-07-13T08:08:17.356Z,53.34
2018-07-13T08:10:44.792Z,53.61
2018-07-13T08:13:12.283Z,54.12
2018-07-13T08:15:39.689Z,53.36
2018-07-13T08:18:07.184Z,53.63
2018-07-13T08:20:36.434Z,53.34
2018-07-13T08:23:06.319Z,53.36
2018-07-13T08:25:34.663Z,53.72
2018-07-13T08:28:03.008Z,53.16
2018-07-13T08:30:37.298Z,53.47
2018-07-13T08:33:04.826Z,54.05
2018-07-13T08:35:32.277Z,54.18
2018-07-13T08:37:59.731Z,53.32
2018-07-13T08:40:27.168Z,53.18
2018-07-13T08:42:54.633Z,54.12
2018-07-13T08:45:22.097Z,53.48
2018-07-13T08:47:49.546Z,53.66
2018-07-13T08:50:17.036Z,53.99
2018-07-13T08:52:44.505Z,53.50
2018-07-13T08:55:11.993Z,53.31
2018-07-13T08:57:39.604Z,53.14
2018-07-13T09:00:07.258Z,54.03
2018-07-13T09:02:34.723Z,53.25
2018-07-13T09:05:02.154Z,53.21
2018-07-13T09:07:30.047Z,53.36
2018-07-13T09:09:58.396Z,54.12
2018-07-13T09:12:25.755Z,53.31
2018-07-13T09:14:53.242Z,54.08
2018-07-13T09:17:20.663Z,53.19
2018-07-13T09:19:48.171Z,53.36
2018-07-13T09:22:15.593Z,53.83
2018-07-13T09:24:43.049Z,53.34
2018-07-13T09:27:10.507Z,53.90
2018-07-13T09:29:37.942Z,53.15
2018-07-13T09:32:05.562Z,53.06
2018-07-13T09:34:33.063Z,53.70
2018-07-13T09:37:00.537Z,53.61
2018-07-13T09:39:27.974Z,52.92
2018-07-13T09:41:55.482Z,53.06
2018-07-13T09:44:22.929Z,53.93
2018-07-13T09:46:50.488Z,54.41
2018-07-13T09:49:17.814Z,54.18
2018-07-13T09:51:45.305Z,53.99
2018-07-13T09:54:12.845Z,54.20
2018-07-13T09:56:40.194Z,53.25
2018-07-13T09:59:07.658Z,53.00
2018-07-13T10:01:35.100Z,53.05
2018-07-13T10:04:02.562Z,52.95
2018-07-13T10:06:30.086Z,52.63
2018-07-13T10:08:57.466Z,52.94
2018-07-13T10:11:24.949Z,52.65
2018-07-13T10:13:52.411Z,52.64
2018-07-13T10:16:19.846Z,52.42
2018-07-13T10:18:47.314Z,52.83
2018-07-13T10:21:14.746Z,52.23
2018-07-13T10:23:43.118Z,52.22
2018-07-13T10:26:12.781Z,52.19
2018-07-13T10:28:40.216Z,52.84
2018-07-13T10:31:07.849Z,52.20
2018-07-13T10:33:35.546Z,52.39
2018-07-13T10:36:03.529Z,51.97
2018-07-13T10:38:30.858Z,51.84
2018-07-13T10:40:58.901Z,52.52
2018-07-13T10:43:26.476Z,52.49
2018-07-13T10:45:53.859Z,51.77
2018-07-13T10:48:21.294Z,52.33
2018-07-13T10:50:48.748Z,51.65
2018-07-13T10:53:16.214Z,52.44
2018-07-13T10:55:43.538Z,52.39
2018-07-13T10:58:10.918Z,51.89
2018-07-13T11:00:38.381Z,51.75
2018-07-13T11:03:05.832Z,52.28
2018-07-13T11:05:33.297Z,51.39
2018-07-13T11:08:00.746Z,51.38
2018-07-13T11:10:28.189Z,51.49
2018-07-13T11:12:55.710Z,51.89
2018-07-13T11:15:23.098Z,51.36
2018-07-13T11:17:50.483Z,51.92
2018-07-13T11:20:17.921Z,51.96
2018-07-13T11:22:45.392Z,51.94
2018-07-13T11:25:12.933Z,51.04
2018-07-13T11:27:40.319Z,51.48
2018-07-13T11:30:07.746Z,51.65
2018-07-13T11:32:35.222Z,51.86
2018-07-13T11:35:02.825Z,50.92
2018-07-13T11:37:30.342Z,51.77
2018-07-13T11:39:57.797Z,50.86
2018-07-13T11:42:25.258Z,51.55
2018-07-13T11:44:52.716Z,50.78
2018-07-13T11:47:20.154Z,50.68
2018-07-13T11:49:47.625Z,51.29
2018-07-13T11:52:15.170Z,51.07
2018-07-13T11:54:42.559Z,50.52
2018-07-13T11:57:09.987Z,51.09
2018-07-13T11:59:37.455Z,50.84
2018-07-13T12:02:04.923Z,50.97
2018-07-13T12:04:32.350Z,50.46
2018-07-13T12:06:59.835Z,50.89
2018-07-13T12:09:27.259Z,50.27
2018-07-13T12:11:54.751Z,50.97
2018-07-13T12:14:22.221Z,50.91
2018-07-13T12:16:49.674Z,51.00
2018-07-13T12:19:17.098Z,50.54
2018-07-13T12:21:44.555Z,50.56
2018-07-13T12:24:12.027Z,51.02
2018-07-13T12:26:39.485Z,51.75
2018-07-13T12:29:06.949Z,51.84
2018-07-13T12:31:34.386Z,51.46
2018-07-13T12:34:01.855Z,50.95
2018-07-13T12:36:29.300Z,50.27
2018-07-13T12:38:56.778Z,51.15
2018-07-13T12:41:24.218Z,50.89
2018-07-13T12:43:51.665Z,50.57
2018-07-13T12:46:19.183Z,49.80
2018-07-13T12:48:46.581Z,50.02
2018-07-13T12:51:14.055Z,50.47
2018-07-13T12:53:41.493Z,49.61
2018-07-13T12:56:08.981Z,50.07
2018-07-13T12:58:36.414Z,50.33
2018-07-13T13:01:03.957Z,49.32
2018-07-13T13:03:31.364Z,49.47
2018-07-13T13:05:58.792Z,49.99
2018-07-13T13:08:26.243Z,49.23
2018-07-13T13:10:53.709Z,49.72
2018-07-13T13:13:21.165Z,49.63
2018-07-13T13:15:48.630Z,49.83
2018-07-13T13:18:16.106Z,49.11
2018-07-13T13:20:43.521Z,48.95
2018-07-13T13:23:10.990Z,49.44
2018-07-13T13:25:38.458Z,48.96
2018-07-13T13:28:05.944Z,49.55
2018-07-13T13:30:33.371Z,49.21
2018-07-13T13:33:00.839Z,48.86
2018-07-13T13:35:28.310Z,49.47
2018-07-13T13:37:55.733Z,49.35
2018-07-13T13:40:23.578Z,48.65
2018-07-13T13:42:51.039Z,48.60
2018-07-13T13:45:18.538Z,49.19
2018-07-13T13:47:45.985Z,48.52
2018-07-13T13:50:13.438Z,48.35
2018-07-13T13:52:40.895Z,49.21
2018-07-13T13:55:08.364Z,49.19
2018-07-13T13:57:35.805Z,49.13
2018-07-13T14:00:03.281Z,48.43
2018-07-13T14:02:30.706Z,48.86
2018-07-13T14:04:58.190Z,48.96
2018-07-13T14:07:25.619Z,49.02
2018-07-13T14:09:53.077Z,48.40
2018-07-13T14:12:20.608Z,49.23
2018-07-13T14:14:48.025Z,49.17
2018-07-13T14:17:15.458Z,48.36
2018-07-13T14:19:42.934Z,48.51
2018-07-13T14:22:10.381Z,48.51
2018-07-13T14:24:37.832Z,48.92
2018-07-13T14:27:05.295Z,48.47
2018-07-13T14:29:32.770Z,48.76
2018-07-13T14:32:00.190Z,48.54
2018-07-13T14:34:27.679Z,48.36
2018-07-13T14:36:55.116Z,48.38
2018-07-13T14:39:22.589Z,48.81
2018-07-13T14:41:50.017Z,48.54
2018-07-13T14:44:17.497Z,48.89
2018-07-13T14:46:44.970Z,49.37
2018-07-13T14:49:12.425Z,49.34
2018-07-13T14:51:40.127Z,49.55
2018-07-13T14:54:07.854Z,49.14
2018-07-13T14:56:35.373Z,49.10
2018-07-13T14:59:02.870Z,48.40
2018-07-13T15:01:30.306Z,49.10
2018-07-13T15:03:57.826Z,49.10
2018-07-13T15:06:25.312Z,48.23
2018-07-13T15:08:52.670Z,48.98
2018-07-13T15:11:20.128Z,49.28
2018-07-13T15:13:47.582Z,49.02
2018-07-13T15:16:15.047Z,48.24
2018-07-13T15:18:42.498Z,48.80
2018-07-13T15:21:09.962Z,48.28
2018-07-13T15:23:37.411Z,48.26
2018-07-13T15:26:04.953Z,48.85
2018-07-13T15:28:32.333Z,48.28
2018-07-13T15:30:59.806Z,48.17
2018-07-13T15:33:27.253Z,48.72
2018-07-13T15:35:54.719Z,47.71
2018-07-13T15:38:22.178Z,47.98
2018-07-13T15:40:49.622Z,48.69
2018-07-13T15:43:17.131Z,48.79
2018-07-13T15:45:44.533Z,48.46
2018-07-13T15:48:11.994Z,48.78
2018-07-13T15:50:39.457Z,48.75
2018-07-13T15:53:06.888Z,47.90
2018-07-13T15:55:34.388Z,48.39
2018-07-13T15:58:01.810Z,48.36
2018-07-13T16:00:29.302Z,48.56
2018-07-13T16:02:56.745Z,48.09
2018-07-13T16:05:24.286Z,48.65
2018-07-13T16:07:51.868Z,48.53
2018-07-13T16:10:19.333Z,48.01
2018-07-13T16:12:46.757Z,48.72
2018-07-13T16:15:14.218Z,47.91
2018-07-13T16:17:41.690Z,48.78
2018-07-13T16:20:09.121Z,48.80
2018-07-13T16:22:36.626Z,48.52
2018-07-13T16:25:04.050Z,47.99
2018-07-13T16:27:31.544Z,48.70
2018-07-13T16:29:58.945Z,47.88
2018-07-13T16:32:26.431Z,48.06
2018-07-13T16:34:53.857Z,47.81
2018-07-13T16:37:21.342Z,48.55
2018-07-13T16:39:48.834Z,48.54
2018-07-13T16:42:16.269Z,47.79
2018-07-13T16:44:43.714Z,47.92
2018-07-13T16:47:11.146Z,48.20
2018-07-13T16:49:38.735Z,47.88
2018-07-13T16:52:06.161Z,48.64
2018-07-13T16:54:33.665Z,48.02
2018-07-13T16:57:01.004Z,48.20
2018-07-13T16:59:28.498Z,48.12
2018-07-13T17:01:55.916Z,47.88
2018-07-13T17:04:23.400Z,48.50
2018-07-13T17:06:50.809Z,48.06
2018-07-13T17:09:18.270Z,48.18
2018-07-13T17:11:45.753Z,48.46
2018-07-13T17:14:13.207Z,48.01
2018-07-13T17:16:40.645Z,48.70
2018-07-13T17:19:08.130Z,47.97
2018-07-13T17:21:35.554Z,48.61
2018-07-13T17:24:03.025Z,48.60
2018-07-13T17:26:30.494Z,47.78
2018-07-13T17:28:57.935Z,48.70
2018-07-13T17:31:25.405Z,48.14
2018-07-13T17:33:52.838Z,47.79
2018-07-13T17:36:20.313Z,48.14
2018-07-13T17:38:47.758Z,47.78
2018-07-13T17:41:15.244Z,47.71
2018-07-13T17:43:42.667Z,48.31
2018-07-13T17:46:10.146Z,47.56
2018-07-13T17:48:37.662Z,48.24
2018-07-13T17:51:05.045Z,47.66
2018-07-13T17:53:32.513Z,48.24
2018-07-13T17:56:00.041Z,47.95
2018-07-13T17:58:27.531Z,47.57
2018-07-13T18:00:55.049Z,48.38
2018-07-13T18:03:22.335Z,48.32
2018-07-13T18:05:49.800Z,47.59
2018-07-13T18:08:17.253Z,47.58
2018-07-13T18:10:44.729Z,46.98
2018-07-13T18:13:12.178Z,46.88
2018-07-13T18:15:39.626Z,46.59
2018-07-13T18:18:07.093Z,47.31
2018-07-13T18:20:34.540Z,46.92
2018-07-13T18:23:02.088Z,46.71
2018-07-13T18:25:29.512Z,46.52
2018-07-13T18:27:56.930Z,46.28
2018-07-13T18:30:24.360Z,44.67
2018-07-13T18:32:51.816Z,45.95
2018-07-13T18:35:19.286Z,45.83
2018-07-13T18:37:46.736Z,46.11
2018-07-13T18:40:14.185Z,45.53
2018-07-13T18:42:41.661Z,45.49
2018-07-13T18:45:09.111Z,46.25
2018-07-13T18:47:36.586Z,46.63
2018-07-13T18:50:04.138Z,45.54
2018-07-13T18:52:31.482Z,46.62
2018-07-13T18:54:58.949Z,46.78
2018-07-13T18:57:26.391Z,45.94
2018-07-13T18:59:53.873Z,46.05
2018-07-13T19:02:21.330Z,46.89
2018-07-13T19:04:48.764Z,45.78
2018-07-13T19:07:16.243Z,46.43
2018-07-13T19:09:43.688Z,46.36
2018-07-13T19:12:11.168Z,46.82
2018-07-13T19:14:38.602Z,46.32
2018-07-13T19:17:06.087Z,45.58
2018-07-13T19:19:33.539Z,46.06
2018-07-13T19:22:00.954Z,46.07
2018-07-13T19:24:28.450Z,45.18
2018-07-13T19:26:55.903Z,44.71
2018-07-13T19:29:23.364Z,45.67
2018-07-13T19:31:50.806Z,45.33
2018-07-13T19:34:18.249Z,44.69
2018-07-13T19:36:45.710Z,44.62
2018-07-13T19:39:13.180Z,44.78
2018-07-13T19:41:40.637Z,45.67
2018-07-13T19:44:08.089Z,46.04
2018-07-13T19:46:35.559Z,46.13
2018-07-13T19:49:03.174Z,45.76
2018-07-13T19:51:30.694Z,46.11
2018-07-13T19:53:58.134Z,47.00
2018-07-13T19:56:25.565Z,46.47
2018-07-13T19:58:53.046Z,47.33
2018-07-13T20:01:20.478Z,47.09
2018-07-13T20:03:47.949Z,46.64
2018-07-13T20:06:15.406Z,47.32
2018-07-13T20:08:42.874Z,47.71
2018-07-13T20:11:10.360Z,48.04
2018-07-13T20:13:37.783Z,48.05
2018-07-13T20:16:05.294Z,47.71
2018-07-13T20:18:32.701Z,48.77
2018-07-13T20:21:00.135Z,48.19
2018-07-13T20:23:27.609Z,48.12
2018-07-13T20:25:55.046Z,48.52
2018-07-13T20:28:22.523Z,48.94
2018-07-13T20:30:49.975Z,48.62
2018-07-13T20:33:17.462Z,48.02
2018-07-13T20:35:44.902Z,48.30
2018-07-13T20:38:12.347Z,47.95
2018-07-13T20:40:39.815Z,48.69
2018-07-13T20:43:07.258Z,48.74
2018-07-13T20:45:34.725Z,48.75
2018-07-13T20:48:02.178Z,48.91
2018-07-13T20:50:29.643Z,47.97
2018-07-13T20:52:57.074Z,48.71
2018-07-13T20:55:24.557Z,48.26
2018-07-13T20:57:52.030Z,48.80
2018-07-13T21:00:19.470Z,48.11
2018-07-13T21:02:46.955Z,48.20
2018-07-13T21:05:14.390Z,48.43
2018-07-13T21:07:41.838Z,48.75
2018-07-13T21:10:09.316Z,48.71
2018-07-13T21:12:36.746Z,48.17
2018-07-13T21:15:04.457Z,48.82
2018-07-13T21:17:31.869Z,48.14
2018-07-13T21:19:59.370Z,48.03
2018-07-13T21:22:26.803Z,48.79
2018-07-13T21:24:54.258Z,47.96
2018-07-13T21:27:21.762Z,47.93
2018-07-13T21:29:49.162Z,48.10
2018-07-13T21:32:16.616Z,48.29
2018-07-13T21:34:44.054Z,48.04
2018-07-13T21:37:11.546Z,48.04
2018-07-13T21:39:38.978Z,48.18
2018-07-13T21:42:06.485Z,48.21
2018-07-13T21:44:33.993Z,48.25
2018-07-13T21:47:01.369Z,48.20
2018-07-13T21:49:28.823Z,48.92
2018-07-13T21:51:56.386Z,48.98
2018-07-13T21:54:23.785Z,47.95
2018-07-13T21:56:52.354Z,48.26
2018-07-13T21:59:19.848Z,48.41
2018-07-13T22:01:47.490Z,49.01
2018-07-13T22:04:14.777Z,48.69
2018-07-13T22:06:42.318Z,48.93
2018-07-13T22:09:09.846Z,48.98
2018-07-13T22:11:37.482Z,49.30
2018-07-13T22:14:04.803Z,49.47
2018-07-13T22:16:32.299Z,49.47
2018-07-13T22:18:59.722Z,49.20
2018-07-13T22:21:27.191Z,49.16
2018-07-13T22:23:54.708Z,47.17
2018-07-13T22:26:22.093Z,49.74
2018-07-13T22:28:49.830Z,49.27
2018-07-13T22:31:17.241Z,49.26
2018-07-13T22:33:44.664Z,48.79
2018-07-13T22:36:12.135Z,48.94
2018-07-13T22:38:39.589Z,48.90
2018-07-13T22:41:07.057Z,48.68
2018-07-13T22:43:34.494Z,49.30
2018-07-13T22:46:01.978Z,49.71
2018-07-13T22:48:29.405Z,50.21
2018-07-13T22:50:56.885Z,49.71
2018-07-13T22:53:24.337Z,49.27
2018-07-13T22:55:51.806Z,49.90
2018-07-13T22:58:19.245Z,49.30
2018-07-13T23:00:46.701Z,50.22
2018-07-13T23:03:14.013Z,49.33
2018-07-13T23:05:41.421Z,49.33
2018-07-13T23:08:08.862Z,50.11
2018-07-13T23:10:36.333Z,50.08
2018-07-13T23:13:03.832Z,50.50
2018-07-13T23:15:31.221Z,50.40
2018-07-13T23:17:58.694Z,49.83
2018-07-13T23:20:26.157Z,50.63
2018-07-13T23:22:53.633Z,49.90
2018-07-13T23:25:21.057Z,50.56
2018-07-13T23:27:48.534Z,50.67
2018-07-13T23:30:16.006Z,50.28
2018-07-13T23:32:43.445Z,49.66
2018-07-13T23:35:10.902Z,49.63
2018-07-13T23:37:38.384Z,50.65
2018-07-13T23:40:05.800Z,49.87
2018-07-13T23:42:33.282Z,50.52
2018-07-13T23:45:00.733Z,50.72
2018-07-13T23:47:28.195Z,50.90
2018-07-13T23:49:55.654Z,50.21
2018-07-13T23:52:23.145Z,50.96
2018-07-13T23:54:50.545Z,51.07
2018-07-13T23:57:18.010Z,50.57
2018-07-13T23:59:45.465Z,51.36
